sensor_id;sensor_type;location;lat;lon;timestamp;P1;durP1;ratioP1;P2;durP2;ratioP2
60312;SDS011;46158;52.850;6.970;2023-07-29T00:00:42;7.43;;;3.45;;
60312;SDS011;46158;52.850;6.970;2023-07-29T00:03:08;8.00;;;3.30;;
60312;SDS011;46158;52.850;6.970;2023-07-29T00:05:34;5.25;;;3.00;;
60312;SDS011;46158;52.850;6.970;2023-07-29T00:08:00;6.25;;;3.22;;
60312;SDS011;46158;52.850;6.970;2023-07-29T00:10:25;7.20;;;2.97;;
60312;SDS011;46158;52.850;6.970;2023-07-29T00:12:52;7.15;;;3.20;;
60312;SDS011;46158;52.850;6.970;2023-07-29T00:15:17;6.03;;;3.10;;
60312;SDS011;46158;52.850;6.970;2023-07-29T00:17:43;8.68;;;3.25;;
60312;SDS011;46158;52.850;6.970;2023-07-29T00:20:09;6.22;;;3.20;;
60312;SDS011;46158;52.850;6.970;2023-07-29T00:22:35;6.13;;;3.30;;
60312;SDS011;46158;52.850;6.970;2023-07-29T00:25:00;5.85;;;3.10;;
60312;SDS011;46158;52.850;6.970;2023-07-29T00:27:26;7.65;;;3.30;;
60312;SDS011;46158;52.850;6.970;2023-07-29T00:29:52;5.13;;;3.00;;
60312;SDS011;46158;52.850;6.970;2023-07-29T00:32:18;6.43;;;3.22;;
60312;SDS011;46158;52.850;6.970;2023-07-29T00:34:44;7.00;;;3.38;;
60312;SDS011;46158;52.850;6.970;2023-07-29T00:37:09;6.78;;;3.15;;
60312;SDS011;46158;52.850;6.970;2023-07-29T00:39:36;6.22;;;3.10;;
60312;SDS011;46158;52.850;6.970;2023-07-29T00:42:05;7.40;;;3.30;;
60312;SDS011;46158;52.850;6.970;2023-07-29T00:44:32;7.20;;;3.22;;
60312;SDS011;46158;52.850;6.970;2023-07-29T00:46:58;9.40;;;3.55;;
60312;SDS011;46158;52.850;6.970;2023-07-29T00:49:25;5.43;;;3.20;;
60312;SDS011;46158;52.850;6.970;2023-07-29T00:51:51;7.78;;;3.17;;
60312;SDS011;46158;52.850;6.970;2023-07-29T00:54:17;6.18;;;3.28;;
60312;SDS011;46158;52.850;6.970;2023-07-29T00:56:43;7.95;;;3.42;;
60312;SDS011;46158;52.850;6.970;2023-07-29T00:59:08;6.85;;;3.13;;
60312;SDS011;46158;52.850;6.970;2023-07-29T01:01:34;5.97;;;3.13;;
60312;SDS011;46158;52.850;6.970;2023-07-29T01:04:00;7.13;;;3.20;;
60312;SDS011;46158;52.850;6.970;2023-07-29T01:09:06;6.78;;;3.35;;
60312;SDS011;46158;52.850;6.970;2023-07-29T01:11:44;6.95;;;3.30;;
60312;SDS011;46158;52.850;6.970;2023-07-29T01:14:42;5.88;;;3.22;;
60312;SDS011;46158;52.850;6.970;2023-07-29T01:17:33;7.82;;;3.33;;
60312;SDS011;46158;52.850;6.970;2023-07-29T01:20:02;6.75;;;3.38;;
60312;SDS011;46158;52.850;6.970;2023-07-29T01:22:33;6.55;;;3.35;;
60312;SDS011;46158;52.850;6.970;2023-07-29T01:25:00;7.03;;;3.45;;
60312;SDS011;46158;52.850;6.970;2023-07-29T01:27:26;6.40;;;3.30;;
60312;SDS011;46158;52.850;6.970;2023-07-29T01:29:52;7.53;;;3.17;;
60312;SDS011;46158;52.850;6.970;2023-07-29T01:32:21;6.13;;;3.20;;
60312;SDS011;46158;52.850;6.970;2023-07-29T01:37:44;8.00;;;3.40;;
60312;SDS011;46158;52.850;6.970;2023-07-29T01:40:14;5.82;;;3.25;;
60312;SDS011;46158;52.850;6.970;2023-07-29T01:42:41;6.82;;;3.50;;
60312;SDS011;46158;52.850;6.970;2023-07-29T01:45:07;7.25;;;3.15;;
60312;SDS011;46158;52.850;6.970;2023-07-29T01:47:33;7.25;;;3.30;;
60312;SDS011;46158;52.850;6.970;2023-07-29T01:49:59;9.10;;;3.50;;
60312;SDS011;46158;52.850;6.970;2023-07-29T01:52:24;7.38;;;3.30;;
60312;SDS011;46158;52.850;6.970;2023-07-29T01:54:50;8.07;;;3.40;;
60312;SDS011;46158;52.850;6.970;2023-07-29T01:57:16;6.85;;;3.30;;
60312;SDS011;46158;52.850;6.970;2023-07-29T01:59:41;6.82;;;3.30;;
60312;SDS011;46158;52.850;6.970;2023-07-29T02:02:07;5.72;;;3.10;;
60312;SDS011;46158;52.850;6.970;2023-07-29T02:04:33;6.55;;;3.40;;
60312;SDS011;46158;52.850;6.970;2023-07-29T02:06:58;8.30;;;3.67;;
60312;SDS011;46158;52.850;6.970;2023-07-29T02:09:24;7.93;;;3.63;;
60312;SDS011;46158;52.850;6.970;2023-07-29T02:11:51;5.95;;;3.20;;
60312;SDS011;46158;52.850;6.970;2023-07-29T02:14:16;6.32;;;3.15;;
60312;SDS011;46158;52.850;6.970;2023-07-29T02:16:42;8.00;;;3.50;;
60312;SDS011;46158;52.850;6.970;2023-07-29T02:19:08;6.22;;;3.30;;
60312;SDS011;46158;52.850;6.970;2023-07-29T02:21:33;7.90;;;3.40;;
60312;SDS011;46158;52.850;6.970;2023-07-29T02:23:59;7.65;;;3.47;;
60312;SDS011;46158;52.850;6.970;2023-07-29T02:26:25;6.47;;;3.38;;
60312;SDS011;46158;52.850;6.970;2023-07-29T02:28:50;8.45;;;3.42;;
60312;SDS011;46158;52.850;6.970;2023-07-29T02:31:19;6.68;;;3.33;;
60312;SDS011;46158;52.850;6.970;2023-07-29T02:33:46;5.28;;;3.10;;
60312;SDS011;46158;52.850;6.970;2023-07-29T02:36:12;6.50;;;3.30;;
60312;SDS011;46158;52.850;6.970;2023-07-29T02:38:38;7.68;;;3.17;;
60312;SDS011;46158;52.850;6.970;2023-07-29T02:41:05;8.25;;;3.35;;
60312;SDS011;46158;52.850;6.970;2023-07-29T02:43:31;7.35;;;3.15;;
60312;SDS011;46158;52.850;6.970;2023-07-29T02:45:57;5.55;;;3.00;;
60312;SDS011;46158;52.850;6.970;2023-07-29T02:48:22;6.75;;;3.17;;
60312;SDS011;46158;52.850;6.970;2023-07-29T02:50:48;5.88;;;3.13;;
60312;SDS011;46158;52.850;6.970;2023-07-29T02:53:14;5.63;;;3.00;;
60312;SDS011;46158;52.850;6.970;2023-07-29T02:55:40;6.43;;;3.38;;
60312;SDS011;46158;52.850;6.970;2023-07-29T02:58:06;6.25;;;3.20;;
60312;SDS011;46158;52.850;6.970;2023-07-29T03:00:32;6.82;;;3.33;;
60312;SDS011;46158;52.850;6.970;2023-07-29T03:02:58;5.38;;;2.97;;
60312;SDS011;46158;52.850;6.970;2023-07-29T03:05:24;7.72;;;3.00;;
60312;SDS011;46158;52.850;6.970;2023-07-29T03:07:50;7.13;;;3.15;;
60312;SDS011;46158;52.850;6.970;2023-07-29T03:10:15;4.65;;;2.80;;
60312;SDS011;46158;52.850;6.970;2023-07-29T03:12:41;6.97;;;3.30;;
60312;SDS011;46158;52.850;6.970;2023-07-29T03:15:07;6.72;;;2.90;;
60312;SDS011;46158;52.850;6.970;2023-07-29T03:17:33;6.90;;;3.22;;
60312;SDS011;46158;52.850;6.970;2023-07-29T03:19:58;5.50;;;3.10;;
60312;SDS011;46158;52.850;6.970;2023-07-29T03:22:24;6.78;;;3.08;;
60312;SDS011;46158;52.850;6.970;2023-07-29T03:24:50;5.32;;;3.10;;
60312;SDS011;46158;52.850;6.970;2023-07-29T03:27:15;5.72;;;3.03;;
60312;SDS011;46158;52.850;6.970;2023-07-29T03:29:41;4.57;;;2.80;;
60312;SDS011;46158;52.850;6.970;2023-07-29T03:32:07;6.00;;;3.10;;
60312;SDS011;46158;52.850;6.970;2023-07-29T03:34:33;5.20;;;3.00;;
60312;SDS011;46158;52.850;6.970;2023-07-29T03:37:00;6.88;;;3.00;;
60312;SDS011;46158;52.850;6.970;2023-07-29T03:39:26;7.05;;;3.25;;
60312;SDS011;46158;52.850;6.970;2023-07-29T03:41:52;5.55;;;3.15;;
60312;SDS011;46158;52.850;6.970;2023-07-29T03:44:18;6.10;;;3.10;;
60312;SDS011;46158;52.850;6.970;2023-07-29T03:46:44;4.63;;;2.80;;
60312;SDS011;46158;52.850;6.970;2023-07-29T03:49:10;6.05;;;3.10;;
60312;SDS011;46158;52.850;6.970;2023-07-29T03:51:36;4.97;;;2.90;;
60312;SDS011;46158;52.850;6.970;2023-07-29T03:54:01;5.65;;;3.10;;
60312;SDS011;46158;52.850;6.970;2023-07-29T03:56:27;6.03;;;2.90;;
60312;SDS011;46158;52.850;6.970;2023-07-29T03:58:53;5.55;;;2.92;;
60312;SDS011;46158;52.850;6.970;2023-07-29T04:01:19;7.32;;;3.00;;
60312;SDS011;46158;52.850;6.970;2023-07-29T04:03:45;4.93;;;2.80;;
60312;SDS011;46158;52.850;6.970;2023-07-29T04:08:40;5.03;;;2.80;;
60312;SDS011;46158;52.850;6.970;2023-07-29T04:11:06;5.35;;;2.80;;
60312;SDS011;46158;52.850;6.970;2023-07-29T04:13:32;5.45;;;2.88;;
60312;SDS011;46158;52.850;6.970;2023-07-29T04:15:58;4.85;;;2.60;;
60312;SDS011;46158;52.850;6.970;2023-07-29T04:18:23;4.57;;;2.78;;
60312;SDS011;46158;52.850;6.970;2023-07-29T04:20:49;4.97;;;2.90;;
60312;SDS011;46158;52.850;6.970;2023-07-29T04:23:15;4.15;;;2.67;;
60312;SDS011;46158;52.850;6.970;2023-07-29T04:25:40;6.50;;;2.90;;
60312;SDS011;46158;52.850;6.970;2023-07-29T04:28:06;4.13;;;2.65;;
60312;SDS011;46158;52.850;6.970;2023-07-29T04:30:32;4.95;;;2.90;;
60312;SDS011;46158;52.850;6.970;2023-07-29T04:32:57;5.35;;;2.92;;
60312;SDS011;46158;52.850;6.970;2023-07-29T04:35:23;6.88;;;2.97;;
60312;SDS011;46158;52.850;6.970;2023-07-29T04:37:49;4.78;;;2.65;;
60312;SDS011;46158;52.850;6.970;2023-07-29T04:40:14;4.72;;;2.72;;
60312;SDS011;46158;52.850;6.970;2023-07-29T04:42:41;4.50;;;2.78;;
60312;SDS011;46158;52.850;6.970;2023-07-29T04:45:07;5.53;;;3.03;;
60312;SDS011;46158;52.850;6.970;2023-07-29T04:47:33;8.95;;;3.30;;
60312;SDS011;46158;52.850;6.970;2023-07-29T04:49:58;10.10;;;3.97;;
60312;SDS011;46158;52.850;6.970;2023-07-29T04:52:24;8.65;;;3.58;;
60312;SDS011;46158;52.850;6.970;2023-07-29T04:54:50;9.07;;;3.50;;
60312;SDS011;46158;52.850;6.970;2023-07-29T04:57:16;8.32;;;3.05;;
60312;SDS011;46158;52.850;6.970;2023-07-29T04:59:41;7.95;;;3.20;;
60312;SDS011;46158;52.850;6.970;2023-07-29T05:02:07;9.55;;;3.42;;
60312;SDS011;46158;52.850;6.970;2023-07-29T05:04:33;9.95;;;3.20;;
60312;SDS011;46158;52.850;6.970;2023-07-29T05:06:58;7.82;;;3.00;;
60312;SDS011;46158;52.850;6.970;2023-07-29T05:09:24;10.52;;;3.42;;
60312;SDS011;46158;52.850;6.970;2023-07-29T05:11:50;9.45;;;3.17;;
60312;SDS011;46158;52.850;6.970;2023-07-29T05:14:17;10.68;;;3.38;;
60312;SDS011;46158;52.850;6.970;2023-07-29T05:16:43;7.43;;;3.22;;
60312;SDS011;46158;52.850;6.970;2023-07-29T05:19:09;8.60;;;2.90;;
60312;SDS011;46158;52.850;6.970;2023-07-29T05:21:36;9.02;;;3.03;;
60312;SDS011;46158;52.850;6.970;2023-07-29T05:24:03;7.53;;;2.95;;
60312;SDS011;46158;52.850;6.970;2023-07-29T05:26:28;7.30;;;2.70;;
60312;SDS011;46158;52.850;6.970;2023-07-29T05:28:54;8.20;;;2.95;;
60312;SDS011;46158;52.850;6.970;2023-07-29T05:31:20;7.53;;;2.90;;
60312;SDS011;46158;52.850;6.970;2023-07-29T05:33:47;8.80;;;2.92;;
60312;SDS011;46158;52.850;6.970;2023-07-29T05:36:13;6.18;;;2.78;;
60312;SDS011;46158;52.850;6.970;2023-07-29T05:38:38;10.90;;;3.03;;
60312;SDS011;46158;52.850;6.970;2023-07-29T05:41:05;6.47;;;2.80;;
60312;SDS011;46158;52.850;6.970;2023-07-29T05:43:30;10.75;;;2.90;;
60312;SDS011;46158;52.850;6.970;2023-07-29T05:45:56;8.30;;;3.03;;
60312;SDS011;46158;52.850;6.970;2023-07-29T05:48:22;5.30;;;2.53;;
60312;SDS011;46158;52.850;6.970;2023-07-29T05:50:48;5.78;;;2.50;;
60312;SDS011;46158;52.850;6.970;2023-07-29T05:53:14;6.60;;;2.53;;
60312;SDS011;46158;52.850;6.970;2023-07-29T05:55:40;7.05;;;2.75;;
60312;SDS011;46158;52.850;6.970;2023-07-29T05:58:05;5.88;;;2.50;;
60312;SDS011;46158;52.850;6.970;2023-07-29T06:00:31;7.07;;;2.67;;
60312;SDS011;46158;52.850;6.970;2023-07-29T06:02:57;9.95;;;2.90;;
60312;SDS011;46158;52.850;6.970;2023-07-29T06:05:23;7.10;;;2.72;;
60312;SDS011;46158;52.850;6.970;2023-07-29T06:07:48;6.88;;;2.80;;
60312;SDS011;46158;52.850;6.970;2023-07-29T06:10:14;11.77;;;2.90;;
60312;SDS011;46158;52.850;6.970;2023-07-29T06:12:43;8.00;;;3.03;;
60312;SDS011;46158;52.850;6.970;2023-07-29T06:15:12;7.65;;;2.78;;
60312;SDS011;46158;52.850;6.970;2023-07-29T06:17:38;7.80;;;2.85;;
60312;SDS011;46158;52.850;6.970;2023-07-29T06:20:04;7.55;;;3.00;;
60312;SDS011;46158;52.850;6.970;2023-07-29T06:22:30;6.38;;;3.08;;
60312;SDS011;46158;52.850;6.970;2023-07-29T06:24:56;11.57;;;3.60;;
60312;SDS011;46158;52.850;6.970;2023-07-29T06:27:22;7.47;;;3.30;;
60312;SDS011;46158;52.850;6.970;2023-07-29T06:29:50;9.68;;;3.40;;
60312;SDS011;46158;52.850;6.970;2023-07-29T06:32:16;10.45;;;3.42;;
60312;SDS011;46158;52.850;6.970;2023-07-29T06:34:41;8.23;;;3.20;;
60312;SDS011;46158;52.850;6.970;2023-07-29T06:37:07;13.05;;;3.78;;
60312;SDS011;46158;52.850;6.970;2023-07-29T06:39:33;11.38;;;3.53;;
60312;SDS011;46158;52.850;6.970;2023-07-29T06:41:59;14.68;;;3.85;;
60312;SDS011;46158;52.850;6.970;2023-07-29T06:44:24;8.15;;;3.50;;
60312;SDS011;46158;52.850;6.970;2023-07-29T06:46:50;10.52;;;3.67;;
60312;SDS011;46158;52.850;6.970;2023-07-29T06:49:15;10.88;;;3.72;;
60312;SDS011;46158;52.850;6.970;2023-07-29T06:51:41;11.00;;;3.58;;
60312;SDS011;46158;52.850;6.970;2023-07-29T06:54:07;12.15;;;3.60;;
60312;SDS011;46158;52.850;6.970;2023-07-29T06:56:32;11.13;;;3.80;;
60312;SDS011;46158;52.850;6.970;2023-07-29T06:58:58;11.05;;;3.58;;
60312;SDS011;46158;52.850;6.970;2023-07-29T07:01:24;12.70;;;3.60;;
60312;SDS011;46158;52.850;6.970;2023-07-29T07:03:49;12.30;;;3.80;;
60312;SDS011;46158;52.850;6.970;2023-07-29T07:06:15;10.80;;;3.65;;
60312;SDS011;46158;52.850;6.970;2023-07-29T07:08:41;12.32;;;3.90;;
60312;SDS011;46158;52.850;6.970;2023-07-29T07:11:06;13.32;;;3.90;;
60312;SDS011;46158;52.850;6.970;2023-07-29T07:13:33;12.90;;;3.90;;
60312;SDS011;46158;52.850;6.970;2023-07-29T07:15:58;12.38;;;4.20;;
60312;SDS011;46158;52.850;6.970;2023-07-29T07:18:24;12.43;;;4.28;;
60312;SDS011;46158;52.850;6.970;2023-07-29T07:20:49;11.82;;;4.20;;
60312;SDS011;46158;52.850;6.970;2023-07-29T07:23:16;12.00;;;4.05;;
60312;SDS011;46158;52.850;6.970;2023-07-29T07:25:42;10.88;;;3.95;;
60312;SDS011;46158;52.850;6.970;2023-07-29T07:28:09;14.23;;;4.38;;
60312;SDS011;46158;52.850;6.970;2023-07-29T07:30:35;14.65;;;4.30;;
60312;SDS011;46158;52.850;6.970;2023-07-29T07:33:04;11.50;;;4.15;;
60312;SDS011;46158;52.850;6.970;2023-07-29T07:35:30;11.90;;;3.53;;
60312;SDS011;46158;52.850;6.970;2023-07-29T07:37:55;12.43;;;4.18;;
60312;SDS011;46158;52.850;6.970;2023-07-29T07:40:21;14.80;;;4.43;;
60312;SDS011;46158;52.850;6.970;2023-07-29T07:42:47;12.85;;;4.38;;
60312;SDS011;46158;52.850;6.970;2023-07-29T07:45:12;12.57;;;4.00;;
60312;SDS011;46158;52.850;6.970;2023-07-29T07:47:38;12.70;;;4.65;;
60312;SDS011;46158;52.850;6.970;2023-07-29T07:50:04;10.98;;;3.85;;
60312;SDS011;46158;52.850;6.970;2023-07-29T07:52:30;11.43;;;3.88;;
60312;SDS011;46158;52.850;6.970;2023-07-29T07:54:55;13.15;;;4.50;;
60312;SDS011;46158;52.850;6.970;2023-07-29T07:57:21;13.25;;;4.88;;
60312;SDS011;46158;52.850;6.970;2023-07-29T07:59:47;10.70;;;4.03;;
60312;SDS011;46158;52.850;6.970;2023-07-29T08:02:13;10.43;;;3.80;;
60312;SDS011;46158;52.850;6.970;2023-07-29T08:04:38;8.23;;;3.47;;
60312;SDS011;46158;52.850;6.970;2023-07-29T08:07:04;8.15;;;3.10;;
60312;SDS011;46158;52.850;6.970;2023-07-29T08:09:30;10.35;;;3.35;;
60312;SDS011;46158;52.850;6.970;2023-07-29T08:11:56;7.63;;;3.15;;
60312;SDS011;46158;52.850;6.970;2023-07-29T08:14:21;8.65;;;3.20;;
60312;SDS011;46158;52.850;6.970;2023-07-29T08:16:47;7.57;;;3.00;;
60312;SDS011;46158;52.850;6.970;2023-07-29T08:19:13;8.10;;;3.13;;
60312;SDS011;46158;52.850;6.970;2023-07-29T08:21:38;12.10;;;3.63;;
60312;SDS011;46158;52.850;6.970;2023-07-29T08:24:04;9.25;;;3.13;;
60312;SDS011;46158;52.850;6.970;2023-07-29T08:26:31;9.18;;;3.25;;
60312;SDS011;46158;52.850;6.970;2023-07-29T08:28:57;8.82;;;3.00;;
60312;SDS011;46158;52.850;6.970;2023-07-29T08:31:23;8.95;;;3.10;;
60312;SDS011;46158;52.850;6.970;2023-07-29T08:33:48;7.60;;;3.00;;
60312;SDS011;46158;52.850;6.970;2023-07-29T08:36:14;10.23;;;3.05;;
60312;SDS011;46158;52.850;6.970;2023-07-29T08:38:40;9.77;;;3.28;;
60312;SDS011;46158;52.850;6.970;2023-07-29T08:43:38;6.22;;;2.83;;
60312;SDS011;46158;52.850;6.970;2023-07-29T08:46:06;8.73;;;3.00;;
60312;SDS011;46158;52.850;6.970;2023-07-29T08:48:33;8.15;;;2.90;;
60312;SDS011;46158;52.850;6.970;2023-07-29T08:51:07;8.88;;;3.00;;
60312;SDS011;46158;52.850;6.970;2023-07-29T08:53:34;5.90;;;2.63;;
60312;SDS011;46158;52.850;6.970;2023-07-29T08:56:01;10.40;;;3.10;;
60312;SDS011;46158;52.850;6.970;2023-07-29T08:58:27;9.43;;;2.80;;
60312;SDS011;46158;52.850;6.970;2023-07-29T09:00:53;11.93;;;2.70;;
60312;SDS011;46158;52.850;6.970;2023-07-29T09:03:19;9.23;;;2.88;;
60312;SDS011;46158;52.850;6.970;2023-07-29T09:05:46;6.47;;;2.80;;
60312;SDS011;46158;52.850;6.970;2023-07-29T09:08:13;9.18;;;2.97;;
60312;SDS011;46158;52.850;6.970;2023-07-29T09:10:39;7.50;;;2.78;;
60312;SDS011;46158;52.850;6.970;2023-07-29T09:13:06;10.23;;;2.70;;
60312;SDS011;46158;52.850;6.970;2023-07-29T09:15:33;7.20;;;2.78;;
60312;SDS011;46158;52.850;6.970;2023-07-29T09:18:10;8.15;;;2.80;;
60312;SDS011;46158;52.850;6.970;2023-07-29T09:20:39;10.18;;;2.67;;
60312;SDS011;46158;52.850;6.970;2023-07-29T09:23:07;7.57;;;2.80;;
60312;SDS011;46158;52.850;6.970;2023-07-29T09:25:35;7.90;;;2.70;;
60312;SDS011;46158;52.850;6.970;2023-07-29T09:28:07;5.60;;;2.60;;
60312;SDS011;46158;52.850;6.970;2023-07-29T09:30:38;7.43;;;2.80;;
60312;SDS011;46158;52.850;6.970;2023-07-29T09:33:05;5.07;;;2.60;;
60312;SDS011;46158;52.850;6.970;2023-07-29T09:35:35;7.75;;;2.90;;
60312;SDS011;46158;52.850;6.970;2023-07-29T09:38:04;9.55;;;2.80;;
60312;SDS011;46158;52.850;6.970;2023-07-29T09:40:35;5.82;;;2.80;;
60312;SDS011;46158;52.850;6.970;2023-07-29T09:43:02;6.13;;;2.90;;
60312;SDS011;46158;52.850;6.970;2023-07-29T09:45:29;6.63;;;2.70;;
60312;SDS011;46158;52.850;6.970;2023-07-29T09:47:55;6.75;;;3.08;;
60312;SDS011;46158;52.850;6.970;2023-07-29T09:50:25;10.90;;;2.92;;
60312;SDS011;46158;52.850;6.970;2023-07-29T09:52:52;8.20;;;3.10;;
60312;SDS011;46158;52.850;6.970;2023-07-29T09:55:23;9.00;;;3.15;;
60312;SDS011;46158;52.850;6.970;2023-07-29T09:57:56;5.30;;;2.75;;
60312;SDS011;46158;52.850;6.970;2023-07-29T10:00:26;9.00;;;2.80;;
60312;SDS011;46158;52.850;6.970;2023-07-29T10:02:55;7.53;;;2.92;;
60312;SDS011;46158;52.850;6.970;2023-07-29T10:05:22;9.63;;;3.08;;
60312;SDS011;46158;52.850;6.970;2023-07-29T10:07:50;6.57;;;2.90;;
60312;SDS011;46158;52.850;6.970;2023-07-29T10:10:16;8.00;;;2.90;;
60312;SDS011;46158;52.850;6.970;2023-07-29T10:12:43;6.93;;;3.08;;
60312;SDS011;46158;52.850;6.970;2023-07-29T10:15:09;10.30;;;3.00;;
60312;SDS011;46158;52.850;6.970;2023-07-29T10:17:36;8.27;;;2.92;;
60312;SDS011;46158;52.850;6.970;2023-07-29T10:20:03;7.22;;;2.70;;
60312;SDS011;46158;52.850;6.970;2023-07-29T10:22:36;8.30;;;2.92;;
60312;SDS011;46158;52.850;6.970;2023-07-29T10:25:04;7.57;;;2.92;;
60312;SDS011;46158;52.850;6.970;2023-07-29T10:27:42;7.05;;;2.92;;
60312;SDS011;46158;52.850;6.970;2023-07-29T10:30:12;5.72;;;2.72;;
60312;SDS011;46158;52.850;6.970;2023-07-29T10:32:38;10.35;;;2.53;;
60312;SDS011;46158;52.850;6.970;2023-07-29T10:35:09;7.32;;;2.90;;
60312;SDS011;46158;52.850;6.970;2023-07-29T10:37:35;7.30;;;2.70;;
60312;SDS011;46158;52.850;6.970;2023-07-29T10:40:03;6.55;;;2.65;;
60312;SDS011;46158;52.850;6.970;2023-07-29T10:44:57;6.70;;;2.70;;
60312;SDS011;46158;52.850;6.970;2023-07-29T10:47:24;4.15;;;2.53;;
60312;SDS011;46158;52.850;6.970;2023-07-29T10:49:55;8.68;;;2.80;;
60312;SDS011;46158;52.850;6.970;2023-07-29T10:52:29;9.18;;;2.80;;
60312;SDS011;46158;52.850;6.970;2023-07-29T10:58:06;6.95;;;2.67;;
60312;SDS011;46158;52.850;6.970;2023-07-29T11:00:42;8.25;;;2.70;;
60312;SDS011;46158;52.850;6.970;2023-07-29T11:03:09;10.38;;;2.80;;
60312;SDS011;46158;52.850;6.970;2023-07-29T11:05:56;7.97;;;2.97;;
60312;SDS011;46158;52.850;6.970;2023-07-29T11:08:29;6.13;;;2.58;;
60312;SDS011;46158;52.850;6.970;2023-07-29T11:13:27;9.07;;;2.67;;
60312;SDS011;46158;52.850;6.970;2023-07-29T11:15:54;6.93;;;2.53;;
60312;SDS011;46158;52.850;6.970;2023-07-29T11:18:21;8.27;;;2.72;;
60312;SDS011;46158;52.850;6.970;2023-07-29T11:20:47;6.57;;;2.53;;
60312;SDS011;46158;52.850;6.970;2023-07-29T11:23:13;10.05;;;2.80;;
60312;SDS011;46158;52.850;6.970;2023-07-29T11:25:40;6.93;;;2.58;;
60312;SDS011;46158;52.850;6.970;2023-07-29T11:28:05;8.10;;;2.90;;
60312;SDS011;46158;52.850;6.970;2023-07-29T11:30:31;6.45;;;3.00;;
60312;SDS011;46158;52.850;6.970;2023-07-29T11:32:58;10.45;;;3.05;;
60312;SDS011;46158;52.850;6.970;2023-07-29T11:35:24;6.97;;;2.80;;
60312;SDS011;46158;52.850;6.970;2023-07-29T11:37:51;9.57;;;3.05;;
60312;SDS011;46158;52.850;6.970;2023-07-29T11:40:22;7.63;;;3.00;;
60312;SDS011;46158;52.850;6.970;2023-07-29T11:42:50;8.10;;;2.90;;
60312;SDS011;46158;52.850;6.970;2023-07-29T11:45:17;6.40;;;2.85;;
60312;SDS011;46158;52.850;6.970;2023-07-29T11:47:43;7.18;;;3.03;;
60312;SDS011;46158;52.850;6.970;2023-07-29T11:50:10;8.48;;;3.20;;
60312;SDS011;46158;52.850;6.970;2023-07-29T11:52:42;5.77;;;3.03;;
60312;SDS011;46158;52.850;6.970;2023-07-29T11:55:09;6.63;;;3.10;;
60312;SDS011;46158;52.850;6.970;2023-07-29T11:57:36;7.10;;;3.30;;
60312;SDS011;46158;52.850;6.970;2023-07-29T12:00:03;9.10;;;3.50;;
60312;SDS011;46158;52.850;6.970;2023-07-29T12:02:31;11.77;;;3.60;;
60312;SDS011;46158;52.850;6.970;2023-07-29T12:05:04;10.68;;;3.97;;
60312;SDS011;46158;52.850;6.970;2023-07-29T12:07:31;9.02;;;3.80;;
60312;SDS011;46158;52.850;6.970;2023-07-29T12:09:58;10.98;;;3.70;;
60312;SDS011;46158;52.850;6.970;2023-07-29T12:12:24;9.07;;;3.90;;
60312;SDS011;46158;52.850;6.970;2023-07-29T12:14:50;10.55;;;3.60;;
60312;SDS011;46158;52.850;6.970;2023-07-29T12:17:16;10.98;;;3.72;;
60312;SDS011;46158;52.850;6.970;2023-07-29T12:19:43;8.88;;;3.92;;
60312;SDS011;46158;52.850;6.970;2023-07-29T12:22:09;9.05;;;3.47;;
60312;SDS011;46158;52.850;6.970;2023-07-29T12:24:36;13.18;;;3.90;;
60312;SDS011;46158;52.850;6.970;2023-07-29T12:27:04;8.77;;;3.80;;
60312;SDS011;46158;52.850;6.970;2023-07-29T12:29:30;11.30;;;3.72;;
60312;SDS011;46158;52.850;6.970;2023-07-29T12:31:59;9.15;;;3.63;;
60312;SDS011;46158;52.850;6.970;2023-07-29T12:34:26;10.68;;;3.60;;
60312;SDS011;46158;52.850;6.970;2023-07-29T12:36:56;12.93;;;3.95;;
60312;SDS011;46158;52.850;6.970;2023-07-29T12:39:27;10.98;;;3.50;;
60312;SDS011;46158;52.850;6.970;2023-07-29T12:41:55;10.00;;;3.67;;
60312;SDS011;46158;52.850;6.970;2023-07-29T12:44:25;10.95;;;3.60;;
60312;SDS011;46158;52.850;6.970;2023-07-29T12:46:54;9.90;;;3.50;;
60312;SDS011;46158;52.850;6.970;2023-07-29T12:49:20;11.07;;;3.47;;
60312;SDS011;46158;52.850;6.970;2023-07-29T12:51:47;7.90;;;3.60;;
60312;SDS011;46158;52.850;6.970;2023-07-29T12:54:13;6.32;;;3.30;;
60312;SDS011;46158;52.850;6.970;2023-07-29T12:56:38;9.43;;;3.67;;
60312;SDS011;46158;52.850;6.970;2023-07-29T12:59:04;9.13;;;3.35;;
60312;SDS011;46158;52.850;6.970;2023-07-29T13:01:31;6.30;;;3.20;;
60312;SDS011;46158;52.850;6.970;2023-07-29T13:03:56;10.13;;;3.45;;
60312;SDS011;46158;52.850;6.970;2023-07-29T13:06:22;7.55;;;3.40;;
60312;SDS011;46158;52.850;6.970;2023-07-29T13:08:48;10.77;;;3.42;;
60312;SDS011;46158;52.850;6.970;2023-07-29T13:11:14;8.05;;;3.35;;
60312;SDS011;46158;52.850;6.970;2023-07-29T13:13:41;6.28;;;3.40;;
60312;SDS011;46158;52.850;6.970;2023-07-29T13:16:06;8.48;;;3.30;;
60312;SDS011;46158;52.850;6.970;2023-07-29T13:18:32;6.15;;;3.17;;
60312;SDS011;46158;52.850;6.970;2023-07-29T13:20:59;7.38;;;2.97;;
60312;SDS011;46158;52.850;6.970;2023-07-29T13:23:27;8.15;;;3.10;;
60312;SDS011;46158;52.850;6.970;2023-07-29T13:25:55;10.82;;;3.25;;
60312;SDS011;46158;52.850;6.970;2023-07-29T13:28:21;8.20;;;3.03;;
60312;SDS011;46158;52.850;6.970;2023-07-29T13:30:47;10.50;;;3.20;;
60312;SDS011;46158;52.850;6.970;2023-07-29T13:33:12;8.52;;;3.10;;
60312;SDS011;46158;52.850;6.970;2023-07-29T13:35:38;9.15;;;3.20;;
60312;SDS011;46158;52.850;6.970;2023-07-29T13:38:07;10.57;;;3.40;;
60312;SDS011;46158;52.850;6.970;2023-07-29T13:40:32;10.50;;;3.20;;
60312;SDS011;46158;52.850;6.970;2023-07-29T13:42:58;8.88;;;3.03;;
60312;SDS011;46158;52.850;6.970;2023-07-29T13:45:24;7.93;;;2.95;;
60312;SDS011;46158;52.850;6.970;2023-07-29T13:47:49;10.38;;;2.97;;
60312;SDS011;46158;52.850;6.970;2023-07-29T13:50:16;8.63;;;2.95;;
60312;SDS011;46158;52.850;6.970;2023-07-29T13:52:44;8.38;;;3.03;;
60312;SDS011;46158;52.850;6.970;2023-07-29T13:55:10;8.88;;;3.22;;
60312;SDS011;46158;52.850;6.970;2023-07-29T13:57:36;7.75;;;2.97;;
60312;SDS011;46158;52.850;6.970;2023-07-29T14:00:05;10.73;;;3.00;;
60312;SDS011;46158;52.850;6.970;2023-07-29T14:02:31;8.23;;;2.80;;
60312;SDS011;46158;52.850;6.970;2023-07-29T14:04:56;9.38;;;3.15;;
60312;SDS011;46158;52.850;6.970;2023-07-29T14:07:22;12.75;;;3.67;;
60312;SDS011;46158;52.850;6.970;2023-07-29T14:09:48;8.95;;;3.00;;
60312;SDS011;46158;52.850;6.970;2023-07-29T14:12:14;10.30;;;3.03;;
60312;SDS011;46158;52.850;6.970;2023-07-29T14:14:41;14.57;;;3.67;;
60312;SDS011;46158;52.850;6.970;2023-07-29T14:17:07;11.75;;;3.38;;
60312;SDS011;46158;52.850;6.970;2023-07-29T14:19:36;11.80;;;2.83;;
60312;SDS011;46158;52.850;6.970;2023-07-29T14:22:02;9.10;;;2.55;;
60312;SDS011;46158;52.850;6.970;2023-07-29T14:24:28;7.75;;;2.53;;
60312;SDS011;46158;52.850;6.970;2023-07-29T14:26:53;7.47;;;2.70;;
60312;SDS011;46158;52.850;6.970;2023-07-29T14:29:19;5.00;;;2.20;;
60312;SDS011;46158;52.850;6.970;2023-07-29T14:31:45;3.10;;;1.90;;
60312;SDS011;46158;52.850;6.970;2023-07-29T14:34:10;4.80;;;1.90;;
60312;SDS011;46158;52.850;6.970;2023-07-29T14:36:36;5.68;;;2.13;;
60312;SDS011;46158;52.850;6.970;2023-07-29T14:39:02;6.13;;;2.35;;
60312;SDS011;46158;52.850;6.970;2023-07-29T14:41:28;6.13;;;2.20;;
60312;SDS011;46158;52.850;6.970;2023-07-29T14:43:55;6.72;;;2.35;;
60312;SDS011;46158;52.850;6.970;2023-07-29T14:46:20;5.95;;;2.30;;
60312;SDS011;46158;52.850;6.970;2023-07-29T14:48:46;7.53;;;2.38;;
60312;SDS011;46158;52.850;6.970;2023-07-29T14:51:12;6.63;;;2.40;;
60312;SDS011;46158;52.850;6.970;2023-07-29T14:53:38;6.20;;;2.30;;
60312;SDS011;46158;52.850;6.970;2023-07-29T14:56:04;6.80;;;2.47;;
60312;SDS011;46158;52.850;6.970;2023-07-29T14:58:29;4.25;;;2.28;;
60312;SDS011;46158;52.850;6.970;2023-07-29T15:00:55;5.63;;;2.40;;